sensor_id;sensor_type;location;lat;lon;timestamp;P1;durP1;ratioP1;P2;durP2;ratioP2
13439;SDS011;6792;57.698;11.946;2023-11-19T00:00:32;2.87;;;1.67;;
13439;SDS011;6792;57.698;11.946;2023-11-19T00:03:02;1.80;;;1.40;;
13439;SDS011;6792;57.698;11.946;2023-11-19T00:05:33;2.77;;;1.70;;
13439;SDS011;6792;57.698;11.946;2023-11-19T00:08:02;2.00;;;1.23;;
13439;SDS011;6792;57.698;11.946;2023-11-19T00:10:33;2.10;;;1.67;;
13439;SDS011;6792;57.698;11.946;2023-11-19T00:13:03;3.00;;;1.67;;
13439;SDS011;6792;57.698;11.946;2023-11-19T00:15:36;1.70;;;1.50;;
13439;SDS011;6792;57.698;11.946;2023-11-19T00:18:06;1.83;;;1.53;;
13439;SDS011;6792;57.698;11.946;2023-11-19T00:20:36;1.63;;;1.53;;
13439;SDS011;6792;57.698;11.946;2023-11-19T00:23:05;1.90;;;1.13;;
13439;SDS011;6792;57.698;11.946;2023-11-19T00:25:35;2.87;;;1.43;;
13439;SDS011;6792;57.698;11.946;2023-11-19T00:28:05;1.67;;;1.13;;
13439;SDS011;6792;57.698;11.946;2023-11-19T00:30:34;2.07;;;1.40;;
13439;SDS011;6792;57.698;11.946;2023-11-19T00:33:04;1.77;;;1.67;;
13439;SDS011;6792;57.698;11.946;2023-11-19T00:35:34;1.77;;;1.43;;
13439;SDS011;6792;57.698;11.946;2023-11-19T00:38:03;1.60;;;1.30;;
13439;SDS011;6792;57.698;11.946;2023-11-19T00:40:34;4.03;;;1.40;;
13439;SDS011;6792;57.698;11.946;2023-11-19T00:43:03;1.60;;;1.30;;
13439;SDS011;6792;57.698;11.946;2023-11-19T00:45:33;1.73;;;1.20;;
13439;SDS011;6792;57.698;11.946;2023-11-19T00:48:02;1.83;;;1.33;;
13439;SDS011;6792;57.698;11.946;2023-11-19T00:50:33;1.20;;;1.10;;
13439;SDS011;6792;57.698;11.946;2023-11-19T00:53:02;1.40;;;1.30;;
13439;SDS011;6792;57.698;11.946;2023-11-19T00:55:32;2.40;;;1.60;;
13439;SDS011;6792;57.698;11.946;2023-11-19T00:58:01;1.30;;;0.90;;
13439;SDS011;6792;57.698;11.946;2023-11-19T01:00:31;1.60;;;1.50;;
13439;SDS011;6792;57.698;11.946;2023-11-19T01:03:02;4.97;;;1.40;;
13439;SDS011;6792;57.698;11.946;2023-11-19T01:05:33;1.20;;;1.10;;
13439;SDS011;6792;57.698;11.946;2023-11-19T01:08:03;2.07;;;1.10;;
13439;SDS011;6792;57.698;11.946;2023-11-19T01:10:33;1.03;;;0.93;;
13439;SDS011;6792;57.698;11.946;2023-11-19T01:13:04;1.50;;;1.40;;
13439;SDS011;6792;57.698;11.946;2023-11-19T01:15:34;1.37;;;1.27;;
13439;SDS011;6792;57.698;11.946;2023-11-19T01:18:04;1.17;;;1.00;;
13439;SDS011;6792;57.698;11.946;2023-11-19T01:20:37;2.00;;;1.17;;
13439;SDS011;6792;57.698;11.946;2023-11-19T01:23:07;1.60;;;1.30;;
13439;SDS011;6792;57.698;11.946;2023-11-19T01:25:38;1.20;;;1.10;;
13439;SDS011;6792;57.698;11.946;2023-11-19T01:28:08;1.60;;;1.10;;
13439;SDS011;6792;57.698;11.946;2023-11-19T01:30:38;1.77;;;1.10;;
13439;SDS011;6792;57.698;11.946;2023-11-19T01:33:08;1.27;;;1.10;;
13439;SDS011;6792;57.698;11.946;2023-11-19T01:35:38;1.03;;;0.93;;
13439;SDS011;6792;57.698;11.946;2023-11-19T01:38:08;1.40;;;1.10;;
13439;SDS011;6792;57.698;11.946;2023-11-19T01:40:38;1.23;;;0.80;;
13439;SDS011;6792;57.698;11.946;2023-11-19T01:43:07;1.40;;;1.30;;
13439;SDS011;6792;57.698;11.946;2023-11-19T01:45:40;1.30;;;1.20;;
13439;SDS011;6792;57.698;11.946;2023-11-19T01:48:12;1.30;;;1.03;;
13439;SDS011;6792;57.698;11.946;2023-11-19T01:50:44;2.07;;;1.47;;
13439;SDS011;6792;57.698;11.946;2023-11-19T01:53:14;1.67;;;1.27;;
13439;SDS011;6792;57.698;11.946;2023-11-19T01:55:45;1.10;;;1.00;;
13439;SDS011;6792;57.698;11.946;2023-11-19T01:58:20;1.50;;;1.20;;
13439;SDS011;6792;57.698;11.946;2023-11-19T02:00:51;1.33;;;0.90;;
13439;SDS011;6792;57.698;11.946;2023-11-19T02:03:21;1.63;;;1.27;;
13439;SDS011;6792;57.698;11.946;2023-11-19T02:05:53;1.23;;;1.13;;
13439;SDS011;6792;57.698;11.946;2023-11-19T02:08:38;1.00;;;0.90;;
13439;SDS011;6792;57.698;11.946;2023-11-19T02:11:28;1.70;;;1.30;;
13439;SDS011;6792;57.698;11.946;2023-11-19T02:13:58;1.13;;;0.70;;
13439;SDS011;6792;57.698;11.946;2023-11-19T02:16:29;3.80;;;1.10;;
13439;SDS011;6792;57.698;11.946;2023-11-19T02:18:59;1.10;;;1.00;;
13439;SDS011;6792;57.698;11.946;2023-11-19T02:21:43;2.00;;;1.40;;
13439;SDS011;6792;57.698;11.946;2023-11-19T02:24:14;1.63;;;1.30;;
13439;SDS011;6792;57.698;11.946;2023-11-19T02:26:47;1.00;;;0.90;;
13439;SDS011;6792;57.698;11.946;2023-11-19T02:29:18;2.13;;;1.70;;
13439;SDS011;6792;57.698;11.946;2023-11-19T02:31:47;1.90;;;0.90;;
13439;SDS011;6792;57.698;11.946;2023-11-19T02:34:17;1.00;;;0.87;;
13439;SDS011;6792;57.698;11.946;2023-11-19T02:36:48;1.40;;;1.03;;
13439;SDS011;6792;57.698;11.946;2023-11-19T02:39:20;1.27;;;0.90;;
13439;SDS011;6792;57.698;11.946;2023-11-19T02:41:49;1.10;;;0.90;;
13439;SDS011;6792;57.698;11.946;2023-11-19T02:44:19;2.30;;;1.10;;
13439;SDS011;6792;57.698;11.946;2023-11-19T02:46:49;0.80;;;0.80;;
13439;SDS011;6792;57.698;11.946;2023-11-19T02:49:19;1.27;;;1.13;;
13439;SDS011;6792;57.698;11.946;2023-11-19T02:51:50;1.27;;;0.93;;
13439;SDS011;6792;57.698;11.946;2023-11-19T02:54:20;1.10;;;1.00;;
13439;SDS011;6792;57.698;11.946;2023-11-19T02:56:52;1.30;;;1.20;;
13439;SDS011;6792;57.698;11.946;2023-11-19T02:59:23;0.80;;;0.80;;
13439;SDS011;6792;57.698;11.946;2023-11-19T03:01:54;1.10;;;1.00;;
13439;SDS011;6792;57.698;11.946;2023-11-19T03:04:26;1.70;;;0.80;;
13439;SDS011;6792;57.698;11.946;2023-11-19T03:06:55;1.90;;;1.13;;
13439;SDS011;6792;57.698;11.946;2023-11-19T03:09:25;1.13;;;0.87;;
13439;SDS011;6792;57.698;11.946;2023-11-19T03:11:56;0.97;;;0.80;;
13439;SDS011;6792;57.698;11.946;2023-11-19T03:14:25;1.00;;;0.90;;
13439;SDS011;6792;57.698;11.946;2023-11-19T03:16:55;1.67;;;1.00;;
13439;SDS011;6792;57.698;11.946;2023-11-19T03:19:24;1.03;;;0.90;;
13439;SDS011;6792;57.698;11.946;2023-11-19T03:21:54;1.13;;;0.97;;
13439;SDS011;6792;57.698;11.946;2023-11-19T03:24:23;1.00;;;0.90;;
13439;SDS011;6792;57.698;11.946;2023-11-19T03:26:53;1.13;;;0.97;;
13439;SDS011;6792;57.698;11.946;2023-11-19T03:29:22;1.10;;;1.00;;
13439;SDS011;6792;57.698;11.946;2023-11-19T03:31:53;1.27;;;1.10;;
13439;SDS011;6792;57.698;11.946;2023-11-19T03:34:25;1.03;;;0.87;;
13439;SDS011;6792;57.698;11.946;2023-11-19T03:36:55;1.37;;;1.10;;
13439;SDS011;6792;57.698;11.946;2023-11-19T03:39:25;0.97;;;0.80;;
13439;SDS011;6792;57.698;11.946;2023-11-19T03:41:54;1.60;;;1.10;;
13439;SDS011;6792;57.698;11.946;2023-11-19T03:44:23;1.40;;;0.90;;
13439;SDS011;6792;57.698;11.946;2023-11-19T03:46:55;1.03;;;0.90;;
13439;SDS011;6792;57.698;11.946;2023-11-19T03:49:24;0.97;;;0.87;;
13439;SDS011;6792;57.698;11.946;2023-11-19T03:51:54;1.43;;;1.10;;
13439;SDS011;6792;57.698;11.946;2023-11-19T03:54:24;1.10;;;0.93;;
13439;SDS011;6792;57.698;11.946;2023-11-19T03:56:54;1.10;;;1.00;;
13439;SDS011;6792;57.698;11.946;2023-11-19T03:59:24;1.97;;;1.30;;
13439;SDS011;6792;57.698;11.946;2023-11-19T04:01:53;1.93;;;1.10;;
13439;SDS011;6792;57.698;11.946;2023-11-19T04:04:23;1.07;;;0.90;;
13439;SDS011;6792;57.698;11.946;2023-11-19T04:06:52;1.27;;;1.17;;
13439;SDS011;6792;57.698;11.946;2023-11-19T04:09:22;0.83;;;0.83;;
13439;SDS011;6792;57.698;11.946;2023-11-19T04:11:53;1.53;;;1.07;;
13439;SDS011;6792;57.698;11.946;2023-11-19T04:14:22;1.33;;;0.97;;
13439;SDS011;6792;57.698;11.946;2023-11-19T04:19:39;1.73;;;1.27;;
13439;SDS011;6792;57.698;11.946;2023-11-19T04:22:09;1.50;;;1.20;;
13439;SDS011;6792;57.698;11.946;2023-11-19T04:24:39;1.00;;;0.90;;
13439;SDS011;6792;57.698;11.946;2023-11-19T04:27:10;1.53;;;1.00;;
13439;SDS011;6792;57.698;11.946;2023-11-19T04:29:39;1.87;;;1.00;;
13439;SDS011;6792;57.698;11.946;2023-11-19T04:32:08;1.57;;;1.10;;
13439;SDS011;6792;57.698;11.946;2023-11-19T04:34:38;1.50;;;1.07;;
13439;SDS011;6792;57.698;11.946;2023-11-19T04:37:07;1.27;;;1.10;;
13439;SDS011;6792;57.698;11.946;2023-11-19T04:39:37;1.13;;;0.97;;
13439;SDS011;6792;57.698;11.946;2023-11-19T04:42:06;1.03;;;1.00;;
13439;SDS011;6792;57.698;11.946;2023-11-19T04:44:36;1.13;;;1.03;;
13439;SDS011;6792;57.698;11.946;2023-11-19T04:47:05;1.30;;;1.20;;
13439;SDS011;6792;57.698;11.946;2023-11-19T04:49:34;1.27;;;1.17;;
13439;SDS011;6792;57.698;11.946;2023-11-19T04:52:05;1.33;;;1.10;;
13439;SDS011;6792;57.698;11.946;2023-11-19T04:54:34;1.73;;;0.87;;
13439;SDS011;6792;57.698;11.946;2023-11-19T04:57:05;1.43;;;0.80;;
13439;SDS011;6792;57.698;11.946;2023-11-19T04:59:36;1.30;;;1.10;;
13439;SDS011;6792;57.698;11.946;2023-11-19T05:02:05;0.83;;;0.83;;
13439;SDS011;6792;57.698;11.946;2023-11-19T05:04:36;1.60;;;1.17;;
13439;SDS011;6792;57.698;11.946;2023-11-19T05:07:05;1.30;;;1.07;;
13439;SDS011;6792;57.698;11.946;2023-11-19T05:09:34;1.10;;;1.00;;
13439;SDS011;6792;57.698;11.946;2023-11-19T05:12:04;1.27;;;1.17;;
13439;SDS011;6792;57.698;11.946;2023-11-19T05:17:24;1.10;;;1.00;;
13439;SDS011;6792;57.698;11.946;2023-11-19T05:19:53;2.43;;;1.43;;
13439;SDS011;6792;57.698;11.946;2023-11-19T05:22:22;1.17;;;1.07;;
13439;SDS011;6792;57.698;11.946;2023-11-19T05:24:52;1.77;;;1.20;;
13439;SDS011;6792;57.698;11.946;2023-11-19T05:27:22;0.87;;;0.83;;
13439;SDS011;6792;57.698;11.946;2023-11-19T05:29:53;5.77;;;1.37;;
13439;SDS011;6792;57.698;11.946;2023-11-19T05:32:22;1.53;;;1.13;;
13439;SDS011;6792;57.698;11.946;2023-11-19T05:34:52;2.67;;;0.90;;
13439;SDS011;6792;57.698;11.946;2023-11-19T05:37:21;1.50;;;1.40;;
13439;SDS011;6792;57.698;11.946;2023-11-19T05:39:51;0.83;;;0.80;;
13439;SDS011;6792;57.698;11.946;2023-11-19T05:42:21;1.33;;;1.17;;
13439;SDS011;6792;57.698;11.946;2023-11-19T05:44:50;1.60;;;0.93;;
13439;SDS011;6792;57.698;11.946;2023-11-19T05:47:20;1.20;;;1.00;;
13439;SDS011;6792;57.698;11.946;2023-11-19T05:49:49;1.47;;;1.03;;
13439;SDS011;6792;57.698;11.946;2023-11-19T05:52:18;1.33;;;0.90;;
13439;SDS011;6792;57.698;11.946;2023-11-19T05:54:48;2.00;;;1.27;;
13439;SDS011;6792;57.698;11.946;2023-11-19T05:57:19;2.30;;;1.20;;
13439;SDS011;6792;57.698;11.946;2023-11-19T05:59:50;1.37;;;1.10;;
13439;SDS011;6792;57.698;11.946;2023-11-19T06:02:20;1.40;;;1.30;;
13439;SDS011;6792;57.698;11.946;2023-11-19T06:04:49;1.60;;;0.97;;
13439;SDS011;6792;57.698;11.946;2023-11-19T06:07:18;2.17;;;1.00;;
13439;SDS011;6792;57.698;11.946;2023-11-19T06:09:47;1.47;;;1.07;;
13439;SDS011;6792;57.698;11.946;2023-11-19T06:12:16;0.80;;;0.70;;
13439;SDS011;6792;57.698;11.946;2023-11-19T06:14:46;1.23;;;1.10;;
13439;SDS011;6792;57.698;11.946;2023-11-19T06:17:16;1.37;;;1.07;;
13439;SDS011;6792;57.698;11.946;2023-11-19T06:19:45;2.23;;;1.10;;
13439;SDS011;6792;57.698;11.946;2023-11-19T06:22:14;0.90;;;0.90;;
13439;SDS011;6792;57.698;11.946;2023-11-19T06:24:43;1.70;;;1.37;;
13439;SDS011;6792;57.698;11.946;2023-11-19T06:27:13;1.10;;;0.87;;
13439;SDS011;6792;57.698;11.946;2023-11-19T06:29:42;0.83;;;0.73;;
13439;SDS011;6792;57.698;11.946;2023-11-19T06:32:25;2.40;;;1.10;;
13439;SDS011;6792;57.698;11.946;2023-11-19T06:34:55;1.57;;;1.10;;
13439;SDS011;6792;57.698;11.946;2023-11-19T06:37:24;1.47;;;0.93;;
13439;SDS011;6792;57.698;11.946;2023-11-19T06:39:54;1.57;;;1.20;;
13439;SDS011;6792;57.698;11.946;2023-11-19T06:42:23;1.20;;;1.10;;
13439;SDS011;6792;57.698;11.946;2023-11-19T06:44:53;1.33;;;1.17;;
13439;SDS011;6792;57.698;11.946;2023-11-19T06:47:25;1.20;;;1.10;;
13439;SDS011;6792;57.698;11.946;2023-11-19T06:49:55;2.50;;;1.13;;
13439;SDS011;6792;57.698;11.946;2023-11-19T06:52:24;0.90;;;0.90;;
13439;SDS011;6792;57.698;11.946;2023-11-19T06:54:54;2.33;;;1.07;;
13439;SDS011;6792;57.698;11.946;2023-11-19T06:57:23;2.13;;;1.23;;
13439;SDS011;6792;57.698;11.946;2023-11-19T06:59:53;1.30;;;1.00;;
13439;SDS011;6792;57.698;11.946;2023-11-19T07:02:23;1.30;;;0.97;;
13439;SDS011;6792;57.698;11.946;2023-11-19T07:04:52;2.53;;;1.00;;
13439;SDS011;6792;57.698;11.946;2023-11-19T07:07:22;0.93;;;0.87;;
13439;SDS011;6792;57.698;11.946;2023-11-19T07:09:51;1.10;;;1.10;;
13439;SDS011;6792;57.698;11.946;2023-11-19T07:12:20;1.43;;;1.20;;
13439;SDS011;6792;57.698;11.946;2023-11-19T07:14:50;1.20;;;1.03;;
13439;SDS011;6792;57.698;11.946;2023-11-19T07:17:19;1.90;;;1.30;;
13439;SDS011;6792;57.698;11.946;2023-11-19T07:19:49;1.13;;;1.00;;
13439;SDS011;6792;57.698;11.946;2023-11-19T07:22:18;1.57;;;1.20;;
13439;SDS011;6792;57.698;11.946;2023-11-19T07:24:47;1.40;;;1.30;;
13439;SDS011;6792;57.698;11.946;2023-11-19T07:27:16;1.07;;;0.97;;
13439;SDS011;6792;57.698;11.946;2023-11-19T07:29:45;1.67;;;1.20;;
13439;SDS011;6792;57.698;11.946;2023-11-19T07:32:14;1.50;;;1.20;;
13439;SDS011;6792;57.698;11.946;2023-11-19T07:34:44;1.67;;;1.40;;
13439;SDS011;6792;57.698;11.946;2023-11-19T07:37:13;1.33;;;1.00;;
13439;SDS011;6792;57.698;11.946;2023-11-19T07:39:43;1.93;;;1.17;;
13439;SDS011;6792;57.698;11.946;2023-11-19T07:42:12;1.57;;;1.20;;
13439;SDS011;6792;57.698;11.946;2023-11-19T07:44:42;2.10;;;1.27;;
13439;SDS011;6792;57.698;11.946;2023-11-19T07:47:12;0.90;;;0.90;;
13439;SDS011;6792;57.698;11.946;2023-11-19T07:49:41;1.37;;;1.27;;
13439;SDS011;6792;57.698;11.946;2023-11-19T07:52:10;1.83;;;1.13;;
13439;SDS011;6792;57.698;11.946;2023-11-19T07:54:39;1.23;;;1.13;;
13439;SDS011;6792;57.698;11.946;2023-11-19T07:57:09;1.43;;;1.33;;
13439;SDS011;6792;57.698;11.946;2023-11-19T07:59:38;1.23;;;1.13;;
13439;SDS011;6792;57.698;11.946;2023-11-19T08:02:08;3.10;;;1.33;;
13439;SDS011;6792;57.698;11.946;2023-11-19T08:04:37;1.53;;;1.20;;
13439;SDS011;6792;57.698;11.946;2023-11-19T08:07:10;1.87;;;0.90;;
13439;SDS011;6792;57.698;11.946;2023-11-19T08:09:39;1.87;;;1.20;;
13439;SDS011;6792;57.698;11.946;2023-11-19T08:12:08;2.13;;;1.60;;
13439;SDS011;6792;57.698;11.946;2023-11-19T08:14:37;1.20;;;1.10;;
13439;SDS011;6792;57.698;11.946;2023-11-19T08:17:06;1.83;;;1.30;;
13439;SDS011;6792;57.698;11.946;2023-11-19T08:19:35;2.23;;;1.40;;
13439;SDS011;6792;57.698;11.946;2023-11-19T08:22:05;1.80;;;1.30;;
13439;SDS011;6792;57.698;11.946;2023-11-19T08:24:35;3.60;;;1.47;;
13439;SDS011;6792;57.698;11.946;2023-11-19T08:27:06;1.33;;;1.20;;
13439;SDS011;6792;57.698;11.946;2023-11-19T08:29:35;3.03;;;1.50;;
13439;SDS011;6792;57.698;11.946;2023-11-19T08:32:05;1.50;;;1.40;;
13439;SDS011;6792;57.698;11.946;2023-11-19T08:34:34;1.50;;;1.40;;
13439;SDS011;6792;57.698;11.946;2023-11-19T08:37:04;1.20;;;1.10;;
13439;SDS011;6792;57.698;11.946;2023-11-19T08:39:33;1.60;;;1.40;;
13439;SDS011;6792;57.698;11.946;2023-11-19T08:42:04;1.70;;;1.37;;
13439;SDS011;6792;57.698;11.946;2023-11-19T08:44:33;2.23;;;1.70;;
13439;SDS011;6792;57.698;11.946;2023-11-19T08:47:03;1.53;;;1.43;;
13439;SDS011;6792;57.698;11.946;2023-11-19T08:49:33;4.03;;;1.30;;
13439;SDS011;6792;57.698;11.946;2023-11-19T08:52:02;1.90;;;1.50;;
13439;SDS011;6792;57.698;11.946;2023-11-19T08:54:33;1.60;;;1.40;;
13439;SDS011;6792;57.698;11.946;2023-11-19T08:57:02;1.77;;;1.43;;
13439;SDS011;6792;57.698;11.946;2023-11-19T08:59:33;1.57;;;1.40;;
13439;SDS011;6792;57.698;11.946;2023-11-19T09:02:04;2.87;;;1.50;;
13439;SDS011;6792;57.698;11.946;2023-11-19T09:04:34;1.60;;;1.40;;
13439;SDS011;6792;57.698;11.946;2023-11-19T09:07:03;1.77;;;1.43;;
13439;SDS011;6792;57.698;11.946;2023-11-19T09:09:33;1.73;;;1.63;;
13439;SDS011;6792;57.698;11.946;2023-11-19T09:12:03;1.97;;;1.50;;
13439;SDS011;6792;57.698;11.946;2023-11-19T09:14:36;2.53;;;1.60;;
13439;SDS011;6792;57.698;11.946;2023-11-19T09:17:05;2.53;;;1.73;;
13439;SDS011;6792;57.698;11.946;2023-11-19T09:19:35;2.77;;;1.80;;
13439;SDS011;6792;57.698;11.946;2023-11-19T09:22:05;2.30;;;1.90;;
13439;SDS011;6792;57.698;11.946;2023-11-19T09:24:34;1.93;;;1.60;;
13439;SDS011;6792;57.698;11.946;2023-11-19T09:27:03;2.50;;;1.70;;
13439;SDS011;6792;57.698;11.946;2023-11-19T09:29:33;2.10;;;1.60;;
13439;SDS011;6792;57.698;11.946;2023-11-19T09:32:03;4.67;;;1.87;;
13439;SDS011;6792;57.698;11.946;2023-11-19T09:34:33;2.20;;;1.90;;
13439;SDS011;6792;57.698;11.946;2023-11-19T09:37:03;4.37;;;2.13;;
13439;SDS011;6792;57.698;11.946;2023-11-19T09:39:32;2.93;;;2.07;;
13439;SDS011;6792;57.698;11.946;2023-11-19T09:42:01;2.03;;;1.80;;
13439;SDS011;6792;57.698;11.946;2023-11-19T09:44:31;2.37;;;1.70;;
13439;SDS011;6792;57.698;11.946;2023-11-19T09:47:01;2.47;;;2.07;;
13439;SDS011;6792;57.698;11.946;2023-11-19T09:49:30;3.10;;;1.70;;
13439;SDS011;6792;57.698;11.946;2023-11-19T09:52:01;2.23;;;1.97;;
13439;SDS011;6792;57.698;11.946;2023-11-19T09:54:31;5.93;;;2.20;;
13439;SDS011;6792;57.698;11.946;2023-11-19T09:57:02;2.47;;;2.07;;
13439;SDS011;6792;57.698;11.946;2023-11-19T09:59:38;3.60;;;2.33;;
13439;SDS011;6792;57.698;11.946;2023-11-19T10:02:29;2.10;;;1.90;;
13439;SDS011;6792;57.698;11.946;2023-11-19T10:05:07;8.40;;;2.40;;
13439;SDS011;6792;57.698;11.946;2023-11-19T10:07:37;6.47;;;3.80;;
13439;SDS011;6792;57.698;11.946;2023-11-19T10:10:07;9.50;;;4.40;;
13439;SDS011;6792;57.698;11.946;2023-11-19T10:12:38;5.60;;;2.30;;
13439;SDS011;6792;57.698;11.946;2023-11-19T10:15:08;3.93;;;2.50;;
13439;SDS011;6792;57.698;11.946;2023-11-19T10:17:50;3.17;;;2.50;;
13439;SDS011;6792;57.698;11.946;2023-11-19T10:20:22;2.07;;;1.87;;
13439;SDS011;6792;57.698;11.946;2023-11-19T10:22:53;2.27;;;1.97;;
13439;SDS011;6792;57.698;11.946;2023-11-19T10:25:23;2.67;;;2.00;;
13439;SDS011;6792;57.698;11.946;2023-11-19T10:27:53;2.43;;;1.80;;
13439;SDS011;6792;57.698;11.946;2023-11-19T10:30:24;2.30;;;1.97;;
13439;SDS011;6792;57.698;11.946;2023-11-19T10:33:04;2.83;;;2.23;;
13439;SDS011;6792;57.698;11.946;2023-11-19T10:35:34;2.73;;;1.90;;
13439;SDS011;6792;57.698;11.946;2023-11-19T10:38:13;4.10;;;2.20;;
13439;SDS011;6792;57.698;11.946;2023-11-19T10:40:43;2.47;;;1.93;;
13439;SDS011;6792;57.698;11.946;2023-11-19T10:43:12;2.93;;;2.20;;
13439;SDS011;6792;57.698;11.946;2023-11-19T10:45:41;3.60;;;2.80;;
13439;SDS011;6792;57.698;11.946;2023-11-19T10:48:11;2.60;;;2.40;;
13439;SDS011;6792;57.698;11.946;2023-11-19T10:50:40;2.33;;;2.10;;
13439;SDS011;6792;57.698;11.946;2023-11-19T10:53:11;3.87;;;2.40;;
13439;SDS011;6792;57.698;11.946;2023-11-19T10:55:40;2.80;;;2.30;;
13439;SDS011;6792;57.698;11.946;2023-11-19T10:58:11;4.00;;;2.93;;
13439;SDS011;6792;57.698;11.946;2023-11-19T11:00:43;3.03;;;2.00;;
13439;SDS011;6792;57.698;11.946;2023-11-19T11:03:16;2.40;;;2.00;;
13439;SDS011;6792;57.698;11.946;2023-11-19T11:05:47;2.10;;;1.90;;
13439;SDS011;6792;57.698;11.946;2023-11-19T11:08:29;3.67;;;2.27;;
13439;SDS011;6792;57.698;11.946;2023-11-19T11:11:01;2.47;;;2.03;;
13439;SDS011;6792;57.698;11.946;2023-11-19T11:13:31;2.53;;;2.30;;
13439;SDS011;6792;57.698;11.946;2023-11-19T11:16:22;2.10;;;1.90;;
13439;SDS011;6792;57.698;11.946;2023-11-19T11:19:07;2.90;;;2.10;;
13439;SDS011;6792;57.698;11.946;2023-11-19T11:24:40;3.97;;;2.67;;
13439;SDS011;6792;57.698;11.946;2023-11-19T11:30:35;3.50;;;2.60;;
13439;SDS011;6792;57.698;11.946;2023-11-19T11:36:02;3.73;;;2.60;;
13439;SDS011;6792;57.698;11.946;2023-11-19T11:38:36;3.37;;;2.83;;
13439;SDS011;6792;57.698;11.946;2023-11-19T11:41:21;3.13;;;2.50;;
13439;SDS011;6792;57.698;11.946;2023-11-19T11:43:52;5.50;;;2.50;;
13439;SDS011;6792;57.698;11.946;2023-11-19T11:49:29;2.90;;;2.60;;
13439;SDS011;6792;57.698;11.946;2023-11-19T11:52:07;4.17;;;2.63;;
13439;SDS011;6792;57.698;11.946;2023-11-19T11:54:40;6.93;;;2.70;;
13439;SDS011;6792;57.698;11.946;2023-11-19T11:57:10;4.10;;;2.93;;
13439;SDS011;6792;57.698;11.946;2023-11-19T11:59:48;6.50;;;2.80;;
13439;SDS011;6792;57.698;11.946;2023-11-19T12:02:18;3.50;;;2.70;;
13439;SDS011;6792;57.698;11.946;2023-11-19T12:04:49;6.50;;;3.37;;
13439;SDS011;6792;57.698;11.946;2023-11-19T12:07:20;4.87;;;2.70;;
13439;SDS011;6792;57.698;11.946;2023-11-19T12:09:52;7.27;;;2.67;;
13439;SDS011;6792;57.698;11.946;2023-11-19T12:12:26;3.53;;;2.50;;
13439;SDS011;6792;57.698;11.946;2023-11-19T12:15:03;7.53;;;3.93;;
13439;SDS011;6792;57.698;11.946;2023-11-19T12:17:41;3.23;;;2.70;;
13439;SDS011;6792;57.698;11.946;2023-11-19T12:20:22;5.13;;;3.00;;
13439;SDS011;6792;57.698;11.946;2023-11-19T12:22:53;3.80;;;2.80;;
13439;SDS011;6792;57.698;11.946;2023-11-19T12:25:22;3.77;;;2.93;;
13439;SDS011;6792;57.698;11.946;2023-11-19T12:27:53;5.50;;;2.90;;
13439;SDS011;6792;57.698;11.946;2023-11-19T12:30:23;5.03;;;2.93;;
13439;SDS011;6792;57.698;11.946;2023-11-19T12:32:53;3.40;;;2.70;;
13439;SDS011;6792;57.698;11.946;2023-11-19T12:35:22;3.83;;;2.63;;
13439;SDS011;6792;57.698;11.946;2023-11-19T12:37:52;4.73;;;2.83;;
13439;SDS011;6792;57.698;11.946;2023-11-19T12:40:23;4.73;;;3.20;;
13439;SDS011;6792;57.698;11.946;2023-11-19T12:42:54;4.73;;;2.80;;
13439;SDS011;6792;57.698;11.946;2023-11-19T12:45:24;5.60;;;3.00;;
13439;SDS011;6792;57.698;11.946;2023-11-19T12:48:04;4.67;;;3.10;;
13439;SDS011;6792;57.698;11.946;2023-11-19T12:50:51;3.97;;;2.80;;
13439;SDS011;6792;57.698;11.946;2023-11-19T12:53:20;4.57;;;3.00;;
13439;SDS011;6792;57.698;11.946;2023-11-19T12:55:50;3.67;;;2.50;;
13439;SDS011;6792;57.698;11.946;2023-11-19T12:58:29;6.47;;;2.80;;
13439;SDS011;6792;57.698;11.946;2023-11-19T13:01:02;4.47;;;2.77;;
13439;SDS011;6792;57.698;11.946;2023-11-19T13:06:24;3.17;;;2.83;;
13439;SDS011;6792;57.698;11.946;2023-11-19T13:08:53;3.57;;;2.50;;
13439;SDS011;6792;57.698;11.946;2023-11-19T13:11:30;4.87;;;2.90;;
13439;SDS011;6792;57.698;11.946;2023-11-19T13:14:01;3.50;;;2.23;;
13439;SDS011;6792;57.698;11.946;2023-11-19T13:16:31;2.50;;;2.30;;
13439;SDS011;6792;57.698;11.946;2023-11-19T13:19:00;7.93;;;2.70;;
13439;SDS011;6792;57.698;11.946;2023-11-19T13:21:30;4.60;;;2.37;;
13439;SDS011;6792;57.698;11.946;2023-11-19T13:23:59;2.70;;;2.20;;
13439;SDS011;6792;57.698;11.946;2023-11-19T13:26:28;3.80;;;2.60;;
13439;SDS011;6792;57.698;11.946;2023-11-19T13:28:57;4.60;;;2.60;;
13439;SDS011;6792;57.698;11.946;2023-11-19T13:31:26;4.50;;;3.03;;
13439;SDS011;6792;57.698;11.946;2023-11-19T13:33:55;5.03;;;2.80;;
13439;SDS011;6792;57.698;11.946;2023-11-19T13:36:24;2.83;;;2.20;;
13439;SDS011;6792;57.698;11.946;2023-11-19T13:38:54;3.10;;;2.43;;
13439;SDS011;6792;57.698;11.946;2023-11-19T13:41:25;3.27;;;2.33;;
13439;SDS011;6792;57.698;11.946;2023-11-19T13:43:54;4.40;;;3.43;;
13439;SDS011;6792;57.698;11.946;2023-11-19T13:46:23;4.47;;;3.60;;
13439;SDS011;6792;57.698;11.946;2023-11-19T13:48:53;2.27;;;2.07;;
13439;SDS011;6792;57.698;11.946;2023-11-19T13:51:22;2.00;;;1.80;;
13439;SDS011;6792;57.698;11.946;2023-11-19T13:53:51;2.30;;;2.10;;
13439;SDS011;6792;57.698;11.946;2023-11-19T13:56:21;3.80;;;2.17;;
13439;SDS011;6792;57.698;11.946;2023-11-19T13:58:50;3.00;;;2.23;;
13439;SDS011;6792;57.698;11.946;2023-11-19T14:01:20;2.97;;;2.07;;
13439;SDS011;6792;57.698;11.946;2023-11-19T14:03:49;4.17;;;2.83;;
13439;SDS011;6792;57.698;11.946;2023-11-19T14:06:18;2.37;;;1.77;;
13439;SDS011;6792;57.698;11.946;2023-11-19T14:08:48;4.97;;;2.63;;
13439;SDS011;6792;57.698;11.946;2023-11-19T14:11:17;4.03;;;2.37;;
13439;SDS011;6792;57.698;11.946;2023-11-19T14:13:48;4.20;;;2.70;;
13439;SDS011;6792;57.698;11.946;2023-11-19T14:16:17;3.13;;;2.00;;
13439;SDS011;6792;57.698;11.946;2023-11-19T14:18:46;3.83;;;2.20;;
13439;SDS011;6792;57.698;11.946;2023-11-19T14:21:15;4.53;;;2.30;;
13439;SDS011;6792;57.698;11.946;2023-11-19T14:23:44;4.27;;;2.07;;
13439;SDS011;6792;57.698;11.946;2023-11-19T14:26:14;2.50;;;2.00;;
13439;SDS011;6792;57.698;11.946;2023-11-19T14:28:43;2.77;;;1.80;;
13439;SDS011;6792;57.698;11.946;2023-11-19T14:31:12;4.80;;;2.43;;
13439;SDS011;6792;57.698;11.946;2023-11-19T14:33:41;3.20;;;2.23;;
13439;SDS011;6792;57.698;11.946;2023-11-19T14:36:10;3.67;;;2.13;;
13439;SDS011;6792;57.698;11.946;2023-11-19T14:38:40;2.37;;;1.97;;
13439;SDS011;6792;57.698;11.946;2023-11-19T14:41:09;3.70;;;1.70;;
13439;SDS011;6792;57.698;11.946;2023-11-19T14:43:39;2.43;;;1.93;;
13439;SDS011;6792;57.698;11.946;2023-11-19T14:46:08;3.70;;;2.33;;
13439;SDS011;6792;57.698;11.946;2023-11-19T14:48:37;8.30;;;2.30;;
13439;SDS011;6792;57.698;11.946;2023-11-19T14:51:07;1.77;;;1.63;;
13439;SDS011;6792;57.698;11.946;2023-11-19T14:53:36;3.70;;;2.20;;
13439;SDS011;6792;57.698;11.946;2023-11-19T14:56:05;4.97;;;2.53;;
13439;SDS011;6792;57.698;11.946;2023-11-19T14:58:39;3.07;;;1.77;;
13439;SDS011;6792;57.698;11.946;2023-11-19T15:01:11;6.00;;;2.67;;
13439;SDS011;6792;57.698;11.946;2023-11-19T15:03:41;8.97;;;4.20;;
13439;SDS011;6792;57.698;11.946;2023-11-19T15:06:11;3.00;;;2.40;;
13439;SDS011;6792;57.698;11.946;2023-11-19T15:08:41;4.40;;;2.43;;
13439;SDS011;6792;57.698;11.946;2023-11-19T15:11:12;2.87;;;1.77;;
13439;SDS011;6792;57.698;11.946;2023-11-19T15:13:41;2.93;;;1.77;;
13439;SDS011;6792;57.698;11.946;2023-11-19T15:16:10;2.80;;;1.77;;
13439;SDS011;6792;57.698;11.946;2023-11-19T15:18:40;3.23;;;1.90;;
13439;SDS011;6792;57.698;11.946;2023-11-19T15:21:09;4.00;;;2.27;;
13439;SDS011;6792;57.698;11.946;2023-11-19T15:23:39;2.87;;;2.00;;
13439;SDS011;6792;57.698;11.946;2023-11-19T15:26:09;5.77;;;2.37;;
13439;SDS011;6792;57.698;11.946;2023-11-19T15:28:38;4.97;;;2.30;;